Lena-s. — V2EC7 — position and weather

sailwx.info

Track history (hours):
 
Tides and Currents Weather Stations Pressure Air Temp Water Temp Dewpoint Dewpoint Depression Visibility Wind Speed Wind Dir Waves Ship Positions

Lena-s.

Last reported at 2016-Jun-27 02:14 UTC. Time now 2016-Jul-30 20:46 UTC.
Position N 31°54' W 080°39'.
Warning: this ship's position is 33 days out of date.

Length 261 m; draft 11.3 m.

Type: Ship (hazmat cat D). MMSI: 305386000.

Date/timePositionNaut miles runAvg speedWind from/ knotsBaromVisibWave heightAir tempDewpointWater temp
2016-Jun-27 02:14N 31°54' W 080°39'812.2
2016-Jun-27 01:34N 31°59' W 080°46'1211.8
2016-Jun-27 00:33N 32°05' W 080°59'7 6.7
2016-Jun-26 23:33N 32°06' W 081°07'3 2.5
2016-Jun-26 22:31N 32°08' W 081°08'0 0.0
2016-Jun-26 21:31N 32°08' W 081°08'0 0.0
2016-Jun-26 20:31N 32°08' W 081°08'0 0.0
2016-Jun-26 19:25N 32°08' W 081°08'0 0.0
2016-Jun-26 18:29N 32°08' W 081°08'0 0.0
2016-Jun-26 17:32N 32°08' W 081°08'0 0.0
2016-Jun-26 16:32N 32°08' W 081°08'0 0.0
2016-Jun-26 15:32N 32°08' W 081°08'0 0.0
2016-Jun-26 14:32N 32°08' W 081°08'0 0.0
2016-Jun-26 13:32N 32°08' W 081°08'0 0.0
2016-Jun-26 12:32N 32°08' W 081°08'0 0.0
2016-Jun-26 11:32N 32°08' W 081°08'0 0.0
2016-Jun-26 10:26N 32°08' W 081°08'0 0.0
2016-Jun-26 09:33N 32°08' W 081°08'2 2.4
2016-Jun-26 08:33N 32°06' W 081°07'6 6.0
2016-Jun-26 07:33N 32°06' W 080°60'1211.6
2016-Jun-26 06:34N 32°00' W 080°48'2410.5
2016-Jun-26 04:15N 31°56' W 080°19'1 1.5
2016-Jun-26 03:26N 31°56' W 080°18'3 2.9
2016-Jun-26 02:33N 31°57' W 080°15'1212.3
2016-Jun-26 01:33N 31°58' W 080°01'1212.2
2016-Jun-26 00:34N 31°60' W 079°47'1211.9
2016-Jun-25 23:34N 32°04' W 079°33'1211.8
2016-Jun-25 22:34N 32°09' W 079°21'1211.6
2016-Jun-25 21:34N 32°15' W 079°10'1211.6
2016-Jun-25 20:34N 32°22' W 078°58'16011.1
2016-Jun-25 06:03N 33°60' W 076°26'175 8.9
2016-Jun-24 10:30N 36°52' W 075°53'1212.5
2016-Jun-24 09:34N 36°58' W 076°06'1211.5
2016-Jun-24 08:33N 36°56' W 076°20'11 0.8
2016-Jun-23 19:33N 36°59' W 076°07'1413.9
2016-Jun-23 18:33N 36°53' W 075°52'15415.2
2016-Jun-23 08:29N 38°58' W 073°59'1617.6
2016-Jun-23 07:34N 39°14' W 073°56'3417.0
2016-Jun-23 05:33N 39°48' W 073°51'3817.2
2016-Jun-23 03:23N 40°25' W 073°49'1113.9
2016-Jun-23 02:33N 40°32' W 074°01'8 8.3
2016-Jun-23 01:33N 40°39' W 074°08'2 1.5
2016-Jun-23 00:25N 40°40' W 074°08'0 0.0
2016-Jun-22 23:31N 40°40' W 074°08'0 0.0
2016-Jun-22 22:31N 40°40' W 074°08'0 0.0
2016-Jun-22 21:10N 40°40' W 074°08'0 0.0
2016-Jun-22 20:31N 40°40' W 074°08'0 0.0
2016-Jun-22 19:31N 40°40' W 074°08'0 0.0
2016-Jun-22 18:31N 40°40' W 074°08'0 0.0
2016-Jun-22 17:31N 40°40' W 074°08'0 0.0
2016-Jun-22 16:19N 40°40' W 074°08'0 0.0
2016-Jun-22 15:28N 40°40' W 074°08'0 0.0
2016-Jun-22 14:19N 40°40' W 074°08'0 0.0
2016-Jun-22 13:28N 40°40' W 074°08'0 0.0
2016-Jun-22 12:31N 40°40' W 074°08'0 0.0
2016-Jun-22 11:31N 40°40' W 074°08'0 0.0
2016-Jun-22 10:22N 40°40' W 074°08'0 0.0
2016-Jun-22 09:28N 40°40' W 074°08'0 0.0
2016-Jun-22 08:28N 40°40' W 074°08'0 0.0
2016-Jun-22 07:31N 40°40' W 074°08'0 0.0
2016-Jun-22 06:31N 40°40' W 074°08'0 0.0
2016-Jun-22 05:31N 40°40' W 074°08'0 0.0
2016-Jun-22 04:31N 40°40' W 074°08'0 0.0
2016-Jun-22 03:31N 40°40' W 074°08'0 0.0
2016-Jun-22 02:22N 40°40' W 074°08'0 0.0
2016-Jun-22 01:31N 40°40' W 074°08'0 0.0
2016-Jun-22 00:31N 40°40' W 074°08'0 0.0
2016-Jun-21 23:28N 40°40' W 074°08'0 0.0
2016-Jun-21 22:31N 40°40' W 074°08'0 0.0
2016-Jun-21 21:31N 40°40' W 074°08'3 2.8
2016-Jun-21 20:34N 40°39' W 074°05'  
2016-Jun-17 06:09N 39°58' W 029°51'1119.5
2016-Jun-17 05:33N 39°57' W 029°36'1919.2
2016-Jun-17 04:34N 39°54' W 029°11'1919.4
2016-Jun-17 03:33N 39°52' W 028°46'1919.4
2016-Jun-17 02:34N 39°50' W 028°21'  
Track history (hours):
 
Tides and Currents Weather Stations Pressure Air Temp Water Temp Dewpoint Dewpoint Depression Visibility Wind Speed Wind Dir Waves Ship Positions

Lena-s.

Last reported at 2016-Jun-27 02:14 UTC. Time now 2016-Jul-30 20:46 UTC.
Position N 31°54' W 080°39'.
Warning: this ship's position is 33 days out of date.

Length 261 m; draft 11.3 m.

Type: Ship (hazmat cat D). MMSI: 305386000.

Date/timePositionNaut miles runAvg speedWind from/ knotsBaromVisibWave heightAir tempDewpointWater temp
2016-Jun-27 02:14N 31°54' W 080°39'812.2
2016-Jun-27 01:34N 31°59' W 080°46'1211.8
2016-Jun-27 00:33N 32°05' W 080°59'7 6.7
2016-Jun-26 23:33N 32°06' W 081°07'3 2.5
2016-Jun-26 22:31N 32°08' W 081°08'0 0.0
2016-Jun-26 21:31N 32°08' W 081°08'0 0.0
2016-Jun-26 20:31N 32°08' W 081°08'0 0.0
2016-Jun-26 19:25N 32°08' W 081°08'0 0.0
2016-Jun-26 18:29N 32°08' W 081°08'0 0.0
2016-Jun-26 17:32N 32°08' W 081°08'0 0.0
2016-Jun-26 16:32N 32°08' W 081°08'0 0.0
2016-Jun-26 15:32N 32°08' W 081°08'0 0.0
2016-Jun-26 14:32N 32°08' W 081°08'0 0.0
2016-Jun-26 13:32N 32°08' W 081°08'0 0.0
2016-Jun-26 12:32N 32°08' W 081°08'0 0.0
2016-Jun-26 11:32N 32°08' W 081°08'0 0.0
2016-Jun-26 10:26N 32°08' W 081°08'0 0.0
2016-Jun-26 09:33N 32°08' W 081°08'2 2.4
2016-Jun-26 08:33N 32°06' W 081°07'6 6.0
2016-Jun-26 07:33N 32°06' W 080°60'1211.6
2016-Jun-26 06:34N 32°00' W 080°48'2410.5
2016-Jun-26 04:15N 31°56' W 080°19'1 1.5
2016-Jun-26 03:26N 31°56' W 080°18'3 2.9
2016-Jun-26 02:33N 31°57' W 080°15'1212.3
2016-Jun-26 01:33N 31°58' W 080°01'1212.2
2016-Jun-26 00:34N 31°60' W 079°47'1211.9
2016-Jun-25 23:34N 32°04' W 079°33'1211.8
2016-Jun-25 22:34N 32°09' W 079°21'1211.6
2016-Jun-25 21:34N 32°15' W 079°10'1211.6
2016-Jun-25 20:34N 32°22' W 078°58'16011.1
2016-Jun-25 06:03N 33°60' W 076°26'175 8.9
2016-Jun-24 10:30N 36°52' W 075°53'1212.5
2016-Jun-24 09:34N 36°58' W 076°06'1211.5
2016-Jun-24 08:33N 36°56' W 076°20'11 0.8
2016-Jun-23 19:33N 36°59' W 076°07'1413.9
2016-Jun-23 18:33N 36°53' W 075°52'15415.2
2016-Jun-23 08:29N 38°58' W 073°59'1617.6
2016-Jun-23 07:34N 39°14' W 073°56'3417.0
2016-Jun-23 05:33N 39°48' W 073°51'3817.2
2016-Jun-23 03:23N 40°25' W 073°49'1113.9
2016-Jun-23 02:33N 40°32' W 074°01'8 8.3
2016-Jun-23 01:33N 40°39' W 074°08'2 1.5
2016-Jun-23 00:25N 40°40' W 074°08'0 0.0
2016-Jun-22 23:31N 40°40' W 074°08'0 0.0
2016-Jun-22 22:31N 40°40' W 074°08'0 0.0
2016-Jun-22 21:10N 40°40' W 074°08'0 0.0
2016-Jun-22 20:31N 40°40' W 074°08'0 0.0
2016-Jun-22 19:31N 40°40' W 074°08'0 0.0
2016-Jun-22 18:31N 40°40' W 074°08'0 0.0
2016-Jun-22 17:31N 40°40' W 074°08'0 0.0
2016-Jun-22 16:19N 40°40' W 074°08'0 0.0
2016-Jun-22 15:28N 40°40' W 074°08'0 0.0
2016-Jun-22 14:19N 40°40' W 074°08'0 0.0
2016-Jun-22 13:28N 40°40' W 074°08'0 0.0
2016-Jun-22 12:31N 40°40' W 074°08'0 0.0
2016-Jun-22 11:31N 40°40' W 074°08'0 0.0
2016-Jun-22 10:22N 40°40' W 074°08'0 0.0
2016-Jun-22 09:28N 40°40' W 074°08'0 0.0
2016-Jun-22 08:28N 40°40' W 074°08'0 0.0
2016-Jun-22 07:31N 40°40' W 074°08'0 0.0
2016-Jun-22 06:31N 40°40' W 074°08'0 0.0
2016-Jun-22 05:31N 40°40' W 074°08'0 0.0
2016-Jun-22 04:31N 40°40' W 074°08'0 0.0
2016-Jun-22 03:31N 40°40' W 074°08'0 0.0
2016-Jun-22 02:22N 40°40' W 074°08'0 0.0
2016-Jun-22 01:31N 40°40' W 074°08'0 0.0
2016-Jun-22 00:31N 40°40' W 074°08'0 0.0
2016-Jun-21 23:28N 40°40' W 074°08'0 0.0
2016-Jun-21 22:31N 40°40' W 074°08'0 0.0
2016-Jun-21 21:31N 40°40' W 074°08'3 2.8
2016-Jun-21 20:34N 40°39' W 074°05'  
2016-Jun-17 06:09N 39°58' W 029°51'1119.5
2016-Jun-17 05:33N 39°57' W 029°36'1919.2
2016-Jun-17 04:34N 39°54' W 029°11'1919.4
2016-Jun-17 03:33N 39°52' W 028°46'1919.4
2016-Jun-17 02:34N 39°50' W 028°21'  

Dump ship's entire track history